sensor_id;sensor_type;location;lat;lon;timestamp;temperature;humidity
37786;DHT22;23625;48.784;9.336;2024-03-08T00:00:58;1.10;99.90
37786;DHT22;23625;48.784;9.336;2024-03-08T00:03:24;1.10;99.90
37786;DHT22;23625;48.784;9.336;2024-03-08T00:05:50;1.00;99.90
37786;DHT22;23625;48.784;9.336;2024-03-08T00:08:15;1.00;99.90
37786;DHT22;23625;48.784;9.336;2024-03-08T00:10:41;1.00;99.90
37786;DHT22;23625;48.784;9.336;2024-03-08T00:13:06;1.00;99.90
37786;DHT22;23625;48.784;9.336;2024-03-08T00:15:32;1.00;99.90
37786;DHT22;23625;48.784;9.336;2024-03-08T00:17:58;1.00;99.90
37786;DHT22;23625;48.784;9.336;2024-03-08T00:20:23;1.00;99.90
37786;DHT22;23625;48.784;9.336;2024-03-08T00:22:49;0.90;99.90
37786;DHT22;23625;48.784;9.336;2024-03-08T00:25:15;1.00;99.90
37786;DHT22;23625;48.784;9.336;2024-03-08T00:27:41;0.80;99.90
37786;DHT22;23625;48.784;9.336;2024-03-08T00:30:07;0.70;99.90
37786;DHT22;23625;48.784;9.336;2024-03-08T00:32:33;0.70;99.90
37786;DHT22;23625;48.784;9.336;2024-03-08T00:34:59;0.90;99.90
37786;DHT22;23625;48.784;9.336;2024-03-08T00:37:25;0.80;99.90
37786;DHT22;23625;48.784;9.336;2024-03-08T00:39:51;0.70;99.90
37786;DHT22;23625;48.784;9.336;2024-03-08T00:42:17;0.70;99.90
37786;DHT22;23625;48.784;9.336;2024-03-08T00:44:43;0.60;99.90
37786;DHT22;23625;48.784;9.336;2024-03-08T00:47:09;0.50;99.90
37786;DHT22;23625;48.784;9.336;2024-03-08T00:49:35;0.50;99.90
37786;DHT22;23625;48.784;9.336;2024-03-08T00:52:02;0.50;99.90
37786;DHT22;23625;48.784;9.336;2024-03-08T00:54:27;0.50;99.90
37786;DHT22;23625;48.784;9.336;2024-03-08T00:56:53;0.40;99.90
37786;DHT22;23625;48.784;9.336;2024-03-08T00:59:18;0.40;99.90
37786;DHT22;23625;48.784;9.336;2024-03-08T01:01:44;0.30;99.90
37786;DHT22;23625;48.784;9.336;2024-03-08T01:04:10;0.30;99.90
37786;DHT22;23625;48.784;9.336;2024-03-08T01:06:36;0.30;99.90
37786;DHT22;23625;48.784;9.336;2024-03-08T01:09:02;0.30;99.90
37786;DHT22;23625;48.784;9.336;2024-03-08T01:11:28;0.30;99.90
37786;DHT22;23625;48.784;9.336;2024-03-08T01:13:54;0.30;99.90
37786;DHT22;23625;48.784;9.336;2024-03-08T01:16:19;0.30;99.90
37786;DHT22;23625;48.784;9.336;2024-03-08T01:18:48;0.20;99.90
37786;DHT22;23625;48.784;9.336;2024-03-08T01:21:13;0.20;99.90
37786;DHT22;23625;48.784;9.336;2024-03-08T01:23:39;0.10;99.90
37786;DHT22;23625;48.784;9.336;2024-03-08T01:26:04;0.10;99.90
37786;DHT22;23625;48.784;9.336;2024-03-08T01:28:30;0.20;99.90
37786;DHT22;23625;48.784;9.336;2024-03-08T01:30:57;0.10;99.90
37786;DHT22;23625;48.784;9.336;2024-03-08T01:33:23;0.10;99.90
37786;DHT22;23625;48.784;9.336;2024-03-08T01:35:53;0.10;99.90
37786;DHT22;23625;48.784;9.336;2024-03-08T01:38:20;0.10;99.90
37786;DHT22;23625;48.784;9.336;2024-03-08T01:40:49;0.10;99.90
37786;DHT22;23625;48.784;9.336;2024-03-08T01:43:20;0.10;99.90
37786;DHT22;23625;48.784;9.336;2024-03-08T01:45:47;0.10;99.90
37786;DHT22;23625;48.784;9.336;2024-03-08T01:48:12;0.00;99.90
37786;DHT22;23625;48.784;9.336;2024-03-08T01:50:41;0.00;99.90
37786;DHT22;23625;48.784;9.336;2024-03-08T01:53:07;-0.10;99.90
37786;DHT22;23625;48.784;9.336;2024-03-08T01:55:35;-0.10;99.90
37786;DHT22;23625;48.784;9.336;2024-03-08T01:58:03;-0.10;99.90
37786;DHT22;23625;48.784;9.336;2024-03-08T02:00:30;-0.10;99.90
37786;DHT22;23625;48.784;9.336;2024-03-08T02:02:57;-0.20;99.90
37786;DHT22;23625;48.784;9.336;2024-03-08T02:05:23;-0.10;99.90
37786;DHT22;23625;48.784;9.336;2024-03-08T02:07:49;-0.10;99.90
37786;DHT22;23625;48.784;9.336;2024-03-08T02:10:14;-0.10;99.90
37786;DHT22;23625;48.784;9.336;2024-03-08T02:12:40;-0.10;99.90
37786;DHT22;23625;48.784;9.336;2024-03-08T02:15:06;-0.20;99.90
37786;DHT22;23625;48.784;9.336;2024-03-08T02:17:32;-0.10;99.90
37786;DHT22;23625;48.784;9.336;2024-03-08T02:19:59;-0.10;99.90
37786;DHT22;23625;48.784;9.336;2024-03-08T02:22:27;-0.20;99.90
37786;DHT22;23625;48.784;9.336;2024-03-08T02:24:54;-0.20;99.90
37786;DHT22;23625;48.784;9.336;2024-03-08T02:27:24;-0.30;99.90
37786;DHT22;23625;48.784;9.336;2024-03-08T02:29:56;-0.30;99.90
37786;DHT22;23625;48.784;9.336;2024-03-08T02:32:24;-0.30;99.90
37786;DHT22;23625;48.784;9.336;2024-03-08T02:34:50;-0.40;99.90
37786;DHT22;23625;48.784;9.336;2024-03-08T02:37:16;-0.40;99.90
37786;DHT22;23625;48.784;9.336;2024-03-08T02:39:42;-0.30;99.90
37786;DHT22;23625;48.784;9.336;2024-03-08T02:42:08;-0.40;99.90
37786;DHT22;23625;48.784;9.336;2024-03-08T02:44:34;-0.40;99.90
37786;DHT22;23625;48.784;9.336;2024-03-08T02:47:00;-0.40;99.90
37786;DHT22;23625;48.784;9.336;2024-03-08T02:49:28;-0.50;99.90
37786;DHT22;23625;48.784;9.336;2024-03-08T02:51:54;-0.50;99.90
37786;DHT22;23625;48.784;9.336;2024-03-08T02:54:22;-0.50;99.90
37786;DHT22;23625;48.784;9.336;2024-03-08T02:56:49;-0.60;99.90
37786;DHT22;23625;48.784;9.336;2024-03-08T02:59:17;-0.70;99.90
37786;DHT22;23625;48.784;9.336;2024-03-08T03:01:44;-0.70;99.90
37786;DHT22;23625;48.784;9.336;2024-03-08T03:04:09;-0.60;99.90
37786;DHT22;23625;48.784;9.336;2024-03-08T03:06:35;-0.60;99.90
37786;DHT22;23625;48.784;9.336;2024-03-08T03:09:01;-0.70;99.90
37786;DHT22;23625;48.784;9.336;2024-03-08T03:11:27;-0.70;99.90
37786;DHT22;23625;48.784;9.336;2024-03-08T03:13:52;-0.70;99.90
37786;DHT22;23625;48.784;9.336;2024-03-08T03:16:19;-0.60;99.90
37786;DHT22;23625;48.784;9.336;2024-03-08T03:18:48;-0.70;99.90
37786;DHT22;23625;48.784;9.336;2024-03-08T03:21:13;-0.70;99.90
37786;DHT22;23625;48.784;9.336;2024-03-08T03:23:39;-0.60;99.90
37786;DHT22;23625;48.784;9.336;2024-03-08T03:26:06;-0.60;99.90
37786;DHT22;23625;48.784;9.336;2024-03-08T03:28:37;-0.60;99.90
37786;DHT22;23625;48.784;9.336;2024-03-08T03:31:07;-0.70;99.90
37786;DHT22;23625;48.784;9.336;2024-03-08T03:33:33;-0.70;99.90
37786;DHT22;23625;48.784;9.336;2024-03-08T03:36:03;-0.70;99.90
37786;DHT22;23625;48.784;9.336;2024-03-08T03:38:30;-0.80;99.90
37786;DHT22;23625;48.784;9.336;2024-03-08T03:40:55;-0.90;99.90
37786;DHT22;23625;48.784;9.336;2024-03-08T03:43:23;-0.80;99.90
37786;DHT22;23625;48.784;9.336;2024-03-08T03:45:49;-0.80;99.90
37786;DHT22;23625;48.784;9.336;2024-03-08T03:48:14;-0.60;99.90
37786;DHT22;23625;48.784;9.336;2024-03-08T03:50:40;-0.70;99.90
37786;DHT22;23625;48.784;9.336;2024-03-08T03:53:06;-0.70;99.90
37786;DHT22;23625;48.784;9.336;2024-03-08T03:55:35;-0.80;99.90
37786;DHT22;23625;48.784;9.336;2024-03-08T03:58:04;-0.90;99.90
37786;DHT22;23625;48.784;9.336;2024-03-08T04:00:29;-0.80;99.90
37786;DHT22;23625;48.784;9.336;2024-03-08T04:02:55;-0.80;99.90
37786;DHT22;23625;48.784;9.336;2024-03-08T04:05:24;-0.90;99.90
37786;DHT22;23625;48.784;9.336;2024-03-08T04:07:50;-0.90;99.90
37786;DHT22;23625;48.784;9.336;2024-03-08T04:10:15;-0.90;99.90
37786;DHT22;23625;48.784;9.336;2024-03-08T04:12:41;-0.80;99.90
37786;DHT22;23625;48.784;9.336;2024-03-08T04:15:07;-0.70;99.90
37786;DHT22;23625;48.784;9.336;2024-03-08T04:17:33;-0.70;99.90
37786;DHT22;23625;48.784;9.336;2024-03-08T04:20:02;-0.60;99.90
37786;DHT22;23625;48.784;9.336;2024-03-08T04:22:34;-0.40;99.90
37786;DHT22;23625;48.784;9.336;2024-03-08T04:25:01;-0.30;99.90
37786;DHT22;23625;48.784;9.336;2024-03-08T04:27:27;-0.30;99.90
37786;DHT22;23625;48.784;9.336;2024-03-08T04:29:53;-0.10;99.90
37786;DHT22;23625;48.784;9.336;2024-03-08T04:32:18;-0.30;99.90
37786;DHT22;23625;48.784;9.336;2024-03-08T04:34:44;-0.20;99.90
37786;DHT22;23625;48.784;9.336;2024-03-08T04:37:09;0.00;99.90
37786;DHT22;23625;48.784;9.336;2024-03-08T04:39:38;0.20;99.90
37786;DHT22;23625;48.784;9.336;2024-03-08T04:42:05;0.30;99.90
37786;DHT22;23625;48.784;9.336;2024-03-08T04:44:35;0.40;99.90
37786;DHT22;23625;48.784;9.336;2024-03-08T04:47:01;0.60;99.90
37786;DHT22;23625;48.784;9.336;2024-03-08T04:49:26;0.70;99.90
37786;DHT22;23625;48.784;9.336;2024-03-08T04:51:53;0.90;99.90
37786;DHT22;23625;48.784;9.336;2024-03-08T04:54:19;0.90;99.90
37786;DHT22;23625;48.784;9.336;2024-03-08T04:56:44;1.00;99.90
37786;DHT22;23625;48.784;9.336;2024-03-08T04:59:10;1.10;99.90
37786;DHT22;23625;48.784;9.336;2024-03-08T05:01:35;1.30;99.90
37786;DHT22;23625;48.784;9.336;2024-03-08T05:04:03;1.30;99.90
37786;DHT22;23625;48.784;9.336;2024-03-08T05:06:29;1.40;99.90
37786;DHT22;23625;48.784;9.336;2024-03-08T05:08:55;1.50;99.90
37786;DHT22;23625;48.784;9.336;2024-03-08T05:11:21;1.40;99.90
37786;DHT22;23625;48.784;9.336;2024-03-08T05:13:46;1.30;99.90
37786;DHT22;23625;48.784;9.336;2024-03-08T05:16:12;1.30;99.90
37786;DHT22;23625;48.784;9.336;2024-03-08T05:18:40;1.30;99.90
37786;DHT22;23625;48.784;9.336;2024-03-08T05:21:07;1.50;99.90
37786;DHT22;23625;48.784;9.336;2024-03-08T05:23:34;1.40;99.90
37786;DHT22;23625;48.784;9.336;2024-03-08T05:26:00;1.40;99.90
37786;DHT22;23625;48.784;9.336;2024-03-08T05:28:26;1.40;99.90
37786;DHT22;23625;48.784;9.336;2024-03-08T05:30:52;1.50;99.90
37786;DHT22;23625;48.784;9.336;2024-03-08T05:33:17;1.50;99.90
37786;DHT22;23625;48.784;9.336;2024-03-08T05:35:44;1.40;99.90
37786;DHT22;23625;48.784;9.336;2024-03-08T05:38:10;1.50;99.90
37786;DHT22;23625;48.784;9.336;2024-03-08T05:40:38;1.40;99.90
37786;DHT22;23625;48.784;9.336;2024-03-08T05:43:03;1.30;99.90
37786;DHT22;23625;48.784;9.336;2024-03-08T05:45:29;1.20;99.90
37786;DHT22;23625;48.784;9.336;2024-03-08T05:47:54;1.10;99.90
37786;DHT22;23625;48.784;9.336;2024-03-08T05:50:20;1.20;99.90
37786;DHT22;23625;48.784;9.336;2024-03-08T05:52:46;1.20;99.90
37786;DHT22;23625;48.784;9.336;2024-03-08T05:55:13;1.20;99.90
37786;DHT22;23625;48.784;9.336;2024-03-08T05:57:40;1.10;99.90
37786;DHT22;23625;48.784;9.336;2024-03-08T06:00:06;1.10;99.90
37786;DHT22;23625;48.784;9.336;2024-03-08T06:02:32;1.10;99.90
37786;DHT22;23625;48.784;9.336;2024-03-08T06:04:58;1.00;99.90
37786;DHT22;23625;48.784;9.336;2024-03-08T06:07:23;1.10;99.90
37786;DHT22;23625;48.784;9.336;2024-03-08T06:09:49;0.90;99.90
37786;DHT22;23625;48.784;9.336;2024-03-08T06:12:15;0.90;99.90
37786;DHT22;23625;48.784;9.336;2024-03-08T06:14:44;1.00;99.90
37786;DHT22;23625;48.784;9.336;2024-03-08T06:17:10;1.10;99.90
37786;DHT22;23625;48.784;9.336;2024-03-08T06:19:36;2.00;99.90
37786;DHT22;23625;48.784;9.336;2024-03-08T06:22:02;1.20;99.90
37786;DHT22;23625;48.784;9.336;2024-03-08T06:24:31;1.50;99.90
37786;DHT22;23625;48.784;9.336;2024-03-08T06:26:57;1.50;99.90
37786;DHT22;23625;48.784;9.336;2024-03-08T06:29:22;1.60;99.90
37786;DHT22;23625;48.784;9.336;2024-03-08T06:31:49;1.70;99.90
37786;DHT22;23625;48.784;9.336;2024-03-08T06:34:15;1.70;99.90
37786;DHT22;23625;48.784;9.336;2024-03-08T06:36:41;1.80;99.90
37786;DHT22;23625;48.784;9.336;2024-03-08T06:39:07;1.80;99.90
37786;DHT22;23625;48.784;9.336;2024-03-08T06:41:36;1.90;99.90
37786;DHT22;23625;48.784;9.336;2024-03-08T06:44:02;1.90;99.90
37786;DHT22;23625;48.784;9.336;2024-03-08T06:46:27;2.00;99.90
37786;DHT22;23625;48.784;9.336;2024-03-08T06:48:53;2.00;99.90
37786;DHT22;23625;48.784;9.336;2024-03-08T06:51:19;2.10;99.90
37786;DHT22;23625;48.784;9.336;2024-03-08T06:53:45;2.20;99.90
37786;DHT22;23625;48.784;9.336;2024-03-08T06:56:10;2.20;99.90
37786;DHT22;23625;48.784;9.336;2024-03-08T06:58:36;2.40;99.90
37786;DHT22;23625;48.784;9.336;2024-03-08T07:01:02;2.40;99.90
37786;DHT22;23625;48.784;9.336;2024-03-08T07:03:30;2.40;99.90
37786;DHT22;23625;48.784;9.336;2024-03-08T07:05:57;2.50;99.90
37786;DHT22;23625;48.784;9.336;2024-03-08T07:08:24;2.60;99.90
37786;DHT22;23625;48.784;9.336;2024-03-08T07:10:49;2.60;99.90
37786;DHT22;23625;48.784;9.336;2024-03-08T07:13:15;2.60;99.90
37786;DHT22;23625;48.784;9.336;2024-03-08T07:15:43;2.70;99.90
37786;DHT22;23625;48.784;9.336;2024-03-08T07:18:08;2.70;99.90
37786;DHT22;23625;48.784;9.336;2024-03-08T07:20:34;2.90;99.90
37786;DHT22;23625;48.784;9.336;2024-03-08T07:23:00;2.90;99.90
37786;DHT22;23625;48.784;9.336;2024-03-08T07:25:26;2.90;99.90
37786;DHT22;23625;48.784;9.336;2024-03-08T07:27:55;3.00;99.90
37786;DHT22;23625;48.784;9.336;2024-03-08T07:30:22;3.00;99.90
37786;DHT22;23625;48.784;9.336;2024-03-08T07:33:07;3.10;99.90
37786;DHT22;23625;48.784;9.336;2024-03-08T07:35:33;3.10;99.90
37786;DHT22;23625;48.784;9.336;2024-03-08T07:38:05;3.20;99.90
37786;DHT22;23625;48.784;9.336;2024-03-08T07:40:35;3.20;99.90
37786;DHT22;23625;48.784;9.336;2024-03-08T07:43:00;3.20;99.90
37786;DHT22;23625;48.784;9.336;2024-03-08T07:45:27;3.20;99.90
37786;DHT22;23625;48.784;9.336;2024-03-08T07:47:53;3.30;99.90
37786;DHT22;23625;48.784;9.336;2024-03-08T07:50:18;3.40;99.90
37786;DHT22;23625;48.784;9.336;2024-03-08T07:52:44;3.30;99.90
37786;DHT22;23625;48.784;9.336;2024-03-08T07:55:10;3.30;99.90
37786;DHT22;23625;48.784;9.336;2024-03-08T07:57:36;3.40;99.90
37786;DHT22;23625;48.784;9.336;2024-03-08T08:00:07;3.40;99.90
37786;DHT22;23625;48.784;9.336;2024-03-08T08:02:34;3.40;99.90
37786;DHT22;23625;48.784;9.336;2024-03-08T08:05:01;3.40;99.90
37786;DHT22;23625;48.784;9.336;2024-03-08T08:07:26;3.50;99.90
37786;DHT22;23625;48.784;9.336;2024-03-08T08:09:53;3.50;99.90
37786;DHT22;23625;48.784;9.336;2024-03-08T08:12:19;3.50;99.90
37786;DHT22;23625;48.784;9.336;2024-03-08T08:14:45;3.50;99.90
37786;DHT22;23625;48.784;9.336;2024-03-08T08:17:12;3.50;99.90
37786;DHT22;23625;48.784;9.336;2024-03-08T08:19:37;3.60;99.90
37786;DHT22;23625;48.784;9.336;2024-03-08T08:22:04;3.60;99.90
37786;DHT22;23625;48.784;9.336;2024-03-08T08:24:29;3.60;99.90
37786;DHT22;23625;48.784;9.336;2024-03-08T08:26:55;3.70;99.90
37786;DHT22;23625;48.784;9.336;2024-03-08T08:29:21;3.70;99.90
37786;DHT22;23625;48.784;9.336;2024-03-08T08:31:47;3.80;99.90
37786;DHT22;23625;48.784;9.336;2024-03-08T08:34:12;3.70;99.90
37786;DHT22;23625;48.784;9.336;2024-03-08T08:36:39;3.80;99.90
37786;DHT22;23625;48.784;9.336;2024-03-08T08:39:05;3.80;99.90
37786;DHT22;23625;48.784;9.336;2024-03-08T08:41:37;3.80;99.90
37786;DHT22;23625;48.784;9.336;2024-03-08T08:44:03;3.90;99.90
37786;DHT22;23625;48.784;9.336;2024-03-08T08:46:29;3.90;99.90
37786;DHT22;23625;48.784;9.336;2024-03-08T08:48:54;3.80;99.90
37786;DHT22;23625;48.784;9.336;2024-03-08T08:51:20;3.90;99.90
37786;DHT22;23625;48.784;9.336;2024-03-08T08:53:46;3.90;99.90
37786;DHT22;23625;48.784;9.336;2024-03-08T08:56:13;3.90;99.90
37786;DHT22;23625;48.784;9.336;2024-03-08T08:58:42;3.90;99.90
37786;DHT22;23625;48.784;9.336;2024-03-08T09:01:09;4.00;99.90
37786;DHT22;23625;48.784;9.336;2024-03-08T09:03:37;4.10;99.90
37786;DHT22;23625;48.784;9.336;2024-03-08T09:06:09;4.10;99.90
37786;DHT22;23625;48.784;9.336;2024-03-08T09:08:36;4.10;99.90
37786;DHT22;23625;48.784;9.336;2024-03-08T09:11:01;4.20;99.90
37786;DHT22;23625;48.784;9.336;2024-03-08T09:13:27;4.20;99.90
37786;DHT22;23625;48.784;9.336;2024-03-08T09:15:53;4.20;99.90
37786;DHT22;23625;48.784;9.336;2024-03-08T09:18:18;4.20;99.90
37786;DHT22;23625;48.784;9.336;2024-03-08T09:20:44;4.20;99.90
37786;DHT22;23625;48.784;9.336;2024-03-08T09:23:10;4.30;99.90
37786;DHT22;23625;48.784;9.336;2024-03-08T09:25:36;4.30;99.90
37786;DHT22;23625;48.784;9.336;2024-03-08T09:28:01;4.40;99.90
37786;DHT22;23625;48.784;9.336;2024-03-08T09:30:27;4.40;99.90
37786;DHT22;23625;48.784;9.336;2024-03-08T09:32:52;4.30;99.90
37786;DHT22;23625;48.784;9.336;2024-03-08T09:35:19;4.40;99.90
37786;DHT22;23625;48.784;9.336;2024-03-08T09:37:45;4.40;99.90
37786;DHT22;23625;48.784;9.336;2024-03-08T09:40:13;4.40;99.90
37786;DHT22;23625;48.784;9.336;2024-03-08T09:42:41;4.50;99.90
37786;DHT22;23625;48.784;9.336;2024-03-08T09:45:11;4.50;99.90
37786;DHT22;23625;48.784;9.336;2024-03-08T09:47:42;4.60;99.90
37786;DHT22;23625;48.784;9.336;2024-03-08T09:50:08;4.70;99.90
37786;DHT22;23625;48.784;9.336;2024-03-08T09:52:39;4.70;99.90
37786;DHT22;23625;48.784;9.336;2024-03-08T09:55:06;4.70;99.90
37786;DHT22;23625;48.784;9.336;2024-03-08T09:57:33;4.80;99.90
37786;DHT22;23625;48.784;9.336;2024-03-08T09:59:59;4.90;99.90
37786;DHT22;23625;48.784;9.336;2024-03-08T10:02:25;4.90;99.90
37786;DHT22;23625;48.784;9.336;2024-03-08T10:04:51;4.90;99.90
37786;DHT22;23625;48.784;9.336;2024-03-08T10:07:19;5.00;99.90
37786;DHT22;23625;48.784;9.336;2024-03-08T10:09:45;4.90;99.90
37786;DHT22;23625;48.784;9.336;2024-03-08T10:12:18;4.90;99.90
37786;DHT22;23625;48.784;9.336;2024-03-08T10:14:45;5.00;99.90
37786;DHT22;23625;48.784;9.336;2024-03-08T10:17:12;5.00;99.90
37786;DHT22;23625;48.784;9.336;2024-03-08T10:19:38;5.00;99.90
37786;DHT22;23625;48.784;9.336;2024-03-08T10:22:04;5.00;99.90
37786;DHT22;23625;48.784;9.336;2024-03-08T10:24:30;5.10;99.90
37786;DHT22;23625;48.784;9.336;2024-03-08T10:27:00;5.20;99.90
37786;DHT22;23625;48.784;9.336;2024-03-08T10:29:27;5.30;99.90
37786;DHT22;23625;48.784;9.336;2024-03-08T10:31:54;5.20;99.90
37786;DHT22;23625;48.784;9.336;2024-03-08T10:34:21;5.30;99.90
37786;DHT22;23625;48.784;9.336;2024-03-08T10:36:50;5.40;99.90
37786;DHT22;23625;48.784;9.336;2024-03-08T10:39:22;5.50;99.90
37786;DHT22;23625;48.784;9.336;2024-03-08T10:42:02;5.50;99.90
37786;DHT22;23625;48.784;9.336;2024-03-08T10:47:06;5.60;99.90
37786;DHT22;23625;48.784;9.336;2024-03-08T10:49:55;5.70;99.90
37786;DHT22;23625;48.784;9.336;2024-03-08T10:52:21;5.80;99.90
37786;DHT22;23625;48.784;9.336;2024-03-08T10:54:48;5.90;99.90
37786;DHT22;23625;48.784;9.336;2024-03-08T10:57:18;6.00;99.90
37786;DHT22;23625;48.784;9.336;2024-03-08T10:59:45;6.20;99.90
37786;DHT22;23625;48.784;9.336;2024-03-08T11:02:12;6.30;99.90
37786;DHT22;23625;48.784;9.336;2024-03-08T11:04:38;6.30;98.80
37786;DHT22;23625;48.784;9.336;2024-03-08T11:07:04;6.50;99.90
37786;DHT22;23625;48.784;9.336;2024-03-08T11:09:32;6.50;99.90
37786;DHT22;23625;48.784;9.336;2024-03-08T11:14:55;6.80;98.10
37786;DHT22;23625;48.784;9.336;2024-03-08T11:17:41;6.80;97.30
37786;DHT22;23625;48.784;9.336;2024-03-08T11:20:10;6.90;97.70
37786;DHT22;23625;48.784;9.336;2024-03-08T11:22:41;7.20;99.30
37786;DHT22;23625;48.784;9.336;2024-03-08T11:28:19;7.90;93.10
37786;DHT22;23625;48.784;9.336;2024-03-08T11:30:46;8.20;90.90
37786;DHT22;23625;48.784;9.336;2024-03-08T11:33:15;8.30;88.80
37786;DHT22;23625;48.784;9.336;2024-03-08T11:35:42;8.20;86.30
37786;DHT22;23625;48.784;9.336;2024-03-08T11:38:11;8.30;87.10
37786;DHT22;23625;48.784;9.336;2024-03-08T11:40:37;8.20;85.90
37786;DHT22;23625;48.784;9.336;2024-03-08T11:43:03;8.50;86.10
37786;DHT22;23625;48.784;9.336;2024-03-08T11:45:35;8.80;85.20
37786;DHT22;23625;48.784;9.336;2024-03-08T11:48:06;8.90;81.80
37786;DHT22;23625;48.784;9.336;2024-03-08T11:50:32;8.90;82.90
37786;DHT22;23625;48.784;9.336;2024-03-08T11:53:02;9.00;81.90
37786;DHT22;23625;48.784;9.336;2024-03-08T11:55:29;9.20;79.80
37786;DHT22;23625;48.784;9.336;2024-03-08T11:58:05;9.20;79.30
37786;DHT22;23625;48.784;9.336;2024-03-08T12:00:33;9.40;79.20
37786;DHT22;23625;48.784;9.336;2024-03-08T12:03:05;9.40;77.50
37786;DHT22;23625;48.784;9.336;2024-03-08T12:05:32;9.10;77.00
37786;DHT22;23625;48.784;9.336;2024-03-08T12:07:59;9.00;78.90
37786;DHT22;23625;48.784;9.336;2024-03-08T12:10:25;9.10;79.00
37786;DHT22;23625;48.784;9.336;2024-03-08T12:12:52;9.40;80.30
37786;DHT22;23625;48.784;9.336;2024-03-08T12:15:22;9.60;79.00
37786;DHT22;23625;48.784;9.336;2024-03-08T12:17:52;9.80;77.30
37786;DHT22;23625;48.784;9.336;2024-03-08T12:22:47;10.20;75.60
37786;DHT22;23625;48.784;9.336;2024-03-08T12:25:13;10.30;74.90
37786;DHT22;23625;48.784;9.336;2024-03-08T12:27:40;10.10;72.40
37786;DHT22;23625;48.784;9.336;2024-03-08T12:30:25;10.10;74.00
37786;DHT22;23625;48.784;9.336;2024-03-08T12:32:59;10.40;73.30
37786;DHT22;23625;48.784;9.336;2024-03-08T12:35:27;10.50;73.60
37786;DHT22;23625;48.784;9.336;2024-03-08T12:37:54;10.00;72.70
37786;DHT22;23625;48.784;9.336;2024-03-08T12:42:52;10.40;73.20
37786;DHT22;23625;48.784;9.336;2024-03-08T12:45:18;10.60;71.40
37786;DHT22;23625;48.784;9.336;2024-03-08T12:47:44;10.80;73.10
37786;DHT22;23625;48.784;9.336;2024-03-08T12:50:10;10.60;72.80
37786;DHT22;23625;48.784;9.336;2024-03-08T12:52:36;10.80;72.00
37786;DHT22;23625;48.784;9.336;2024-03-08T12:55:02;10.90;71.00
37786;DHT22;23625;48.784;9.336;2024-03-08T12:57:28;11.10;71.60
37786;DHT22;23625;48.784;9.336;2024-03-08T12:59:54;11.40;71.40
37786;DHT22;23625;48.784;9.336;2024-03-08T13:02:19;11.60;70.40
37786;DHT22;23625;48.784;9.336;2024-03-08T13:04:46;11.80;69.80
37786;DHT22;23625;48.784;9.336;2024-03-08T13:07:21;11.80;69.40
37786;DHT22;23625;48.784;9.336;2024-03-08T13:09:46;11.80;68.00
37786;DHT22;23625;48.784;9.336;2024-03-08T13:12:12;11.60;67.00
37786;DHT22;23625;48.784;9.336;2024-03-08T13:14:40;11.80;69.20
37786;DHT22;23625;48.784;9.336;2024-03-08T13:17:06;11.90;67.50
37786;DHT22;23625;48.784;9.336;2024-03-08T13:19:36;12.00;68.40
37786;DHT22;23625;48.784;9.336;2024-03-08T13:22:01;12.10;67.10
37786;DHT22;23625;48.784;9.336;2024-03-08T13:24:30;12.40;67.20
37786;DHT22;23625;48.784;9.336;2024-03-08T13:26:55;12.50;66.10
37786;DHT22;23625;48.784;9.336;2024-03-08T13:29:21;12.60;65.70
37786;DHT22;23625;48.784;9.336;2024-03-08T13:31:48;12.70;65.60
37786;DHT22;23625;48.784;9.336;2024-03-08T13:34:20;12.70;65.40
37786;DHT22;23625;48.784;9.336;2024-03-08T13:36:53;12.80;64.90
37786;DHT22;23625;48.784;9.336;2024-03-08T13:39:20;12.90;64.60
37786;DHT22;23625;48.784;9.336;2024-03-08T13:41:46;13.00;63.80
37786;DHT22;23625;48.784;9.336;2024-03-08T13:44:12;13.00;63.80
37786;DHT22;23625;48.784;9.336;2024-03-08T13:46:38;13.20;63.00
37786;DHT22;23625;48.784;9.336;2024-03-08T13:49:05;12.90;62.50
37786;DHT22;23625;48.784;9.336;2024-03-08T13:51:33;12.90;63.20
37786;DHT22;23625;48.784;9.336;2024-03-08T13:53:59;12.60;63.50
37786;DHT22;23625;48.784;9.336;2024-03-08T13:56:26;12.50;63.80
37786;DHT22;23625;48.784;9.336;2024-03-08T13:58:52;12.70;62.90
37786;DHT22;23625;48.784;9.336;2024-03-08T14:01:17;12.60;63.30
37786;DHT22;23625;48.784;9.336;2024-03-08T14:03:43;12.70;62.60
37786;DHT22;23625;48.784;9.336;2024-03-08T14:06:09;12.80;63.60
37786;DHT22;23625;48.784;9.336;2024-03-08T14:08:35;12.60;63.30
37786;DHT22;23625;48.784;9.336;2024-03-08T14:11:03;12.60;63.20
37786;DHT22;23625;48.784;9.336;2024-03-08T14:13:40;12.70;63.10
37786;DHT22;23625;48.784;9.336;2024-03-08T14:16:06;12.80;63.70
37786;DHT22;23625;48.784;9.336;2024-03-08T14:18:34;13.00;62.90
37786;DHT22;23625;48.784;9.336;2024-03-08T14:21:00;13.10;62.40
37786;DHT22;23625;48.784;9.336;2024-03-08T14:23:25;13.30;62.60
37786;DHT22;23625;48.784;9.336;2024-03-08T14:25:52;13.30;61.60
37786;DHT22;23625;48.784;9.336;2024-03-08T14:28:18;13.30;62.10
37786;DHT22;23625;48.784;9.336;2024-03-08T14:30:44;13.40;61.50
37786;DHT22;23625;48.784;9.336;2024-03-08T14:33:10;13.30;62.50
37786;DHT22;23625;48.784;9.336;2024-03-08T14:35:36;13.40;62.30
37786;DHT22;23625;48.784;9.336;2024-03-08T14:38:02;13.20;61.80
37786;DHT22;23625;48.784;9.336;2024-03-08T14:40:28;13.30;62.30
37786;DHT22;23625;48.784;9.336;2024-03-08T14:42:56;13.50;61.90
37786;DHT22;23625;48.784;9.336;2024-03-08T14:45:21;13.20;61.30
37786;DHT22;23625;48.784;9.336;2024-03-08T14:47:50;13.20;61.70
37786;DHT22;23625;48.784;9.336;2024-03-08T14:50:19;13.00;62.00
37786;DHT22;23625;48.784;9.336;2024-03-08T14:52:46;12.80;62.00
37786;DHT22;23625;48.784;9.336;2024-03-08T14:55:14;12.90;62.90
37786;DHT22;23625;48.784;9.336;2024-03-08T14:57:41;13.00;64.50
37786;DHT22;23625;48.784;9.336;2024-03-08T15:00:08;13.00;63.70
37786;DHT22;23625;48.784;9.336;2024-03-08T15:02:42;13.00;63.10
37786;DHT22;23625;48.784;9.336;2024-03-08T15:05:07;12.90;63.10
37786;DHT22;23625;48.784;9.336;2024-03-08T15:07:39;12.70;62.80
37786;DHT22;23625;48.784;9.336;2024-03-08T15:10:07;12.70;64.10
37786;DHT22;23625;48.784;9.336;2024-03-08T15:12:37;12.80;63.90
37786;DHT22;23625;48.784;9.336;2024-03-08T15:15:05;12.80;63.60
37786;DHT22;23625;48.784;9.336;2024-03-08T15:17:33;12.80;63.80
37786;DHT22;23625;48.784;9.336;2024-03-08T15:20:02;12.70;64.40
37786;DHT22;23625;48.784;9.336;2024-03-08T15:22:28;12.70;64.60
37786;DHT22;23625;48.784;9.336;2024-03-08T15:24:54;12.60;64.90
37786;DHT22;23625;48.784;9.336;2024-03-08T15:27:20;12.60;64.60
37786;DHT22;23625;48.784;9.336;2024-03-08T15:29:45;12.50;64.80
37786;DHT22;23625;48.784;9.336;2024-03-08T15:32:14;12.40;64.60
37786;DHT22;23625;48.784;9.336;2024-03-08T15:34:45;12.40;64.50
37786;DHT22;23625;48.784;9.336;2024-03-08T15:37:11;12.30;65.00
37786;DHT22;23625;48.784;9.336;2024-03-08T15:39:42;12.40;65.30
37786;DHT22;23625;48.784;9.336;2024-03-08T15:42:08;12.30;65.50
37786;DHT22;23625;48.784;9.336;2024-03-08T15:44:37;12.30;66.30
37786;DHT22;23625;48.784;9.336;2024-03-08T15:47:04;12.30;65.80
37786;DHT22;23625;48.784;9.336;2024-03-08T15:49:32;12.20;66.00
37786;DHT22;23625;48.784;9.336;2024-03-08T15:51:58;12.10;66.00